Terminal Aerodrome Forecast
Issued by NWS Pocatello, ID

Home | Current Version | Previous Version | Text Only | Print | Product List | Glossary On
Versions: 1 2 3 4 5 6 7 8 9 10 11 12 13 14 15 16 17
000
FTUS45 KPIH 012032 AAA
TAFPIH
TAF AMD
KPIH 012032Z 0121/0218 24015G25KT P6SM VCTS SCT060CB BKN090
      TEMPO 0121/0123 VRB15G30KT 6SM -TSRA BKN060CB
     FM020200 VRB05KT P6SM VCSH SCT070 BKN150
     FM021500 16011KT P6SM VCSH BKN080=

USA.gov is the U.S. government's official web portal to all federal, state and local government web resources and services.